createdAt,value
2023-03-17T00:01:57.687Z,52.39
2023-03-17T00:04:27.567Z,52.71
2023-03-17T00:06:56.676Z,52.52
2023-03-17T00:09:24.925Z,52.39
2023-03-17T00:11:54.602Z,52.38
2023-03-17T00:14:22.880Z,52.41
2023-03-17T00:16:53.264Z,52.42
2023-03-17T00:19:27.400Z,52.60
2023-03-17T00:21:56.235Z,52.70
2023-03-17T00:24:24.865Z,52.72
2023-03-17T00:26:54.219Z,52.57
2023-03-17T00:29:22.214Z,52.66
2023-03-17T00:31:51.620Z,52.86
2023-03-17T00:34:24.313Z,53.01
2023-03-17T00:36:53.429Z,52.70
2023-03-17T00:39:24.252Z,52.90
2023-03-17T00:41:56.524Z,53.16
2023-03-17T00:44:25.550Z,52.83
2023-03-17T00:46:56.546Z,53.10
2023-03-17T00:49:26.304Z,52.73
2023-03-17T00:51:55.048Z,52.35
2023-03-17T00:54:23.226Z,52.41
2023-03-17T00:56:53.646Z,51.83
2023-03-17T00:59:28.141Z,51.69
2023-03-17T01:01:56.697Z,51.59
2023-03-17T01:04:25.575Z,51.47
2023-03-17T01:06:54.140Z,51.49
2023-03-17T01:09:26.891Z,51.38
2023-03-17T01:11:55.618Z,51.40
2023-03-17T01:14:25.774Z,51.28
2023-03-17T01:16:55.173Z,51.35
2023-03-17T01:19:24.031Z,51.46
2023-03-17T01:21:52.288Z,51.64
2023-03-17T01:24:21.014Z,51.79
2023-03-17T01:26:49.297Z,51.84
2023-03-17T01:29:17.559Z,52.13
2023-03-17T01:31:47.654Z,52.16
2023-03-17T01:34:16.526Z,51.87
2023-03-17T01:36:44.653Z,51.85
2023-03-17T01:39:12.859Z,52.04
2023-03-17T01:41:41.365Z,51.81
2023-03-17T01:44:15.690Z,51.59
2023-03-17T01:46:45.511Z,51.78
2023-03-17T01:49:20.344Z,51.72
2023-03-17T01:51:55.490Z,51.41
2023-03-17T01:54:28.209Z,50.78
2023-03-17T01:56:59.718Z,51.28
2023-03-17T01:59:34.693Z,51.04
2023-03-17T02:02:06.862Z,50.83
2023-03-17T02:04:36.935Z,50.85
2023-03-17T02:07:06.058Z,50.51
2023-03-17T02:09:35.494Z,50.81
2023-03-17T02:12:05.281Z,50.71
2023-03-17T02:14:34.145Z,51.12
2023-03-17T02:17:03.908Z,50.33
2023-03-17T02:19:35.277Z,50.16
2023-03-17T02:22:05.038Z,50.30
2023-03-17T02:24:37.162Z,50.34
2023-03-17T02:27:09.752Z,50.03
2023-03-17T02:29:37.948Z,50.12
2023-03-17T02:32:06.917Z,49.75
2023-03-17T02:34:35.416Z,49.74
2023-03-17T02:37:07.802Z,49.73
2023-03-17T02:39:36.334Z,49.79
2023-03-17T02:42:05.500Z,49.66
2023-03-17T02:44:35.159Z,49.97
2023-03-17T02:47:04.298Z,50.00
2023-03-17T02:49:33.734Z,50.08
2023-03-17T02:52:01.662Z,50.12
2023-03-17T02:54:31.234Z,50.15
2023-03-17T02:56:59.175Z,50.37
2023-03-17T02:59:27.608Z,49.95
2023-03-17T03:01:58.022Z,49.34
2023-03-17T03:04:26.330Z,49.22
2023-03-17T03:06:54.716Z,49.27
2023-03-17T03:09:24.262Z,49.28
2023-03-17T03:11:53.518Z,49.03
2023-03-17T03:14:21.428Z,49.33
2023-03-17T03:16:49.872Z,49.52
2023-03-17T03:19:18.574Z,49.80
2023-03-17T03:21:46.636Z,49.69
2023-03-17T03:24:14.878Z,49.81
2023-03-17T03:26:42.960Z,49.76
2023-03-17T03:29:12.182Z,49.86
2023-03-17T03:31:40.615Z,49.85
2023-03-17T03:34:08.573Z,49.95
2023-03-17T03:36:37.005Z,50.02
2023-03-17T03:39:05.174Z,50.16
2023-03-17T03:41:33.528Z,50.09
2023-03-17T03:44:01.626Z,50.19
2023-03-17T03:46:31.355Z,50.15
2023-03-17T03:48:59.345Z,50.18
2023-03-17T03:51:27.288Z,50.24
2023-03-17T03:53:55.463Z,50.40
2023-03-17T03:56:23.363Z,50.38
2023-03-17T03:58:51.272Z,50.45
2023-03-17T04:01:19.676Z,50.52
2023-03-17T04:03:49.140Z,50.54
2023-03-17T04:06:17.307Z,50.55
2023-03-17T04:08:45.194Z,50.53
2023-03-17T04:11:13.351Z,50.43
2023-03-17T04:13:41.480Z,50.46
2023-03-17T04:16:09.816Z,50.39
2023-03-17T04:18:38.094Z,50.47
2023-03-17T04:21:08.320Z,50.54
2023-03-17T04:23:39.581Z,50.71
2023-03-17T04:26:08.574Z,50.67
2023-03-17T04:28:36.514Z,50.63
2023-03-17T04:31:04.528Z,50.57
2023-03-17T04:33:32.880Z,50.55
2023-03-17T04:36:00.781Z,50.58
2023-03-17T04:38:30.157Z,50.58
2023-03-17T04:40:59.128Z,50.60
2023-03-17T04:43:27.152Z,50.62
2023-03-17T04:45:55.107Z,50.56
2023-03-17T04:48:23.366Z,50.49
2023-03-17T04:50:51.448Z,50.57
2023-03-17T04:53:19.510Z,50.48
2023-03-17T04:55:49.548Z,50.53
2023-03-17T04:58:30.060Z,50.55
2023-03-17T05:00:59.422Z,50.42
2023-03-17T05:03:28.585Z,50.36
2023-03-17T05:05:57.448Z,50.44
2023-03-17T05:08:28.285Z,50.39
2023-03-17T05:10:59.340Z,50.31
2023-03-17T05:13:27.894Z,50.36
2023-03-17T05:15:56.998Z,50.30
2023-03-17T05:18:26.641Z,50.33
2023-03-17T05:20:55.669Z,50.39
2023-03-17T05:23:24.149Z,50.37
2023-03-17T05:25:52.704Z,50.49
2023-03-17T05:28:22.669Z,50.57
2023-03-17T05:30:50.760Z,50.55
2023-03-17T05:33:19.985Z,50.58
2023-03-17T05:35:48.259Z,50.65
2023-03-17T05:38:16.979Z,50.73
2023-03-17T05:40:45.701Z,50.69
2023-03-17T05:43:14.895Z,50.69
2023-03-17T05:45:45.096Z,50.84
2023-03-17T05:48:13.282Z,50.90
2023-03-17T05:50:41.913Z,50.98
2023-03-17T05:53:10.660Z,51.15
2023-03-17T05:55:38.998Z,51.05
2023-03-17T05:58:07.770Z,51.09
2023-03-17T06:00:36.462Z,51.09
2023-03-17T06:03:07.683Z,50.97
2023-03-17T06:05:35.943Z,50.82
2023-03-17T06:08:05.752Z,50.80
2023-03-17T06:10:34.650Z,50.74
2023-03-17T06:13:03.991Z,50.43
2023-03-17T06:15:34.224Z,50.33
2023-03-17T06:18:02.909Z,50.19
2023-03-17T06:20:32.274Z,50.14
2023-03-17T06:23:05.070Z,50.13
2023-03-17T06:25:34.672Z,49.94
2023-03-17T06:28:03.874Z,49.86
2023-03-17T06:30:32.877Z,49.88
2023-03-17T06:33:01.355Z,49.68
2023-03-17T06:35:30.336Z,49.17
2023-03-17T06:38:00.831Z,48.73
2023-03-17T06:40:29.277Z,48.27
2023-03-17T06:42:57.653Z,47.76
2023-03-17T06:45:26.033Z,48.08
2023-03-17T06:47:54.399Z,47.76
2023-03-17T06:50:23.044Z,47.88
2023-03-17T06:52:51.935Z,47.40
2023-03-17T06:55:22.249Z,47.44
2023-03-17T06:57:51.446Z,47.86
2023-03-17T07:00:21.039Z,47.81
2023-03-17T07:02:49.599Z,47.58
2023-03-17T07:05:18.621Z,47.70
2023-03-17T07:07:46.993Z,47.39
2023-03-17T07:10:15.968Z,47.71
2023-03-17T07:12:45.834Z,47.75
2023-03-17T07:15:13.917Z,47.63
2023-03-17T07:17:42.060Z,46.59
2023-03-17T07:20:11.927Z,47.04
2023-03-17T07:22:39.877Z,45.61
2023-03-17T07:25:09.676Z,46.91
2023-03-17T07:27:37.977Z,46.70
2023-03-17T07:30:08.889Z,46.60
2023-03-17T07:32:37.645Z,44.84
2023-03-17T07:35:07.356Z,46.60
2023-03-17T07:37:35.370Z,46.17
2023-03-17T07:40:03.645Z,45.00
2023-03-17T07:42:31.531Z,46.19
2023-03-17T07:44:59.651Z,45.94
2023-03-17T07:47:29.312Z,45.87
2023-03-17T07:49:58.240Z,44.52
2023-03-17T07:52:26.708Z,45.50
2023-03-17T07:54:55.981Z,44.46
2023-03-17T07:57:24.135Z,45.80
2023-03-17T07:59:52.301Z,43.97
2023-03-17T08:02:21.192Z,43.95
2023-03-17T08:04:51.032Z,43.92
2023-03-17T08:07:19.462Z,42.93
2023-03-17T08:09:47.856Z,43.45
2023-03-17T08:12:16.524Z,44.77
2023-03-17T08:14:44.602Z,43.67
2023-03-17T08:17:13.594Z,41.41
2023-03-17T08:19:42.417Z,44.71
2023-03-17T08:22:12.378Z,44.88
2023-03-17T08:24:42.974Z,42.56
2023-03-17T08:27:11.560Z,44.97
2023-03-17T08:29:39.659Z,43.01
2023-03-17T08:32:08.132Z,44.86
2023-03-17T08:34:36.536Z,43.34
2023-03-17T08:37:04.957Z,44.05
2023-03-17T08:39:35.005Z,42.81
2023-03-17T08:42:04.700Z,43.29
2023-03-17T08:44:33.270Z,41.80
2023-03-17T08:47:01.235Z,43.14
2023-03-17T08:49:29.534Z,42.30
2023-03-17T08:51:57.521Z,43.26
2023-03-17T08:54:25.506Z,43.97
2023-03-17T08:56:55.157Z,43.23
2023-03-17T08:59:23.131Z,43.92
2023-03-17T09:01:51.133Z,41.90
2023-03-17T09:04:19.776Z,42.75
2023-03-17T09:07:02.332Z,42.71
2023-03-17T09:09:32.108Z,41.43
2023-03-17T09:12:03.015Z,42.08
2023-03-17T09:14:40.086Z,43.23
2023-03-17T09:17:11.216Z,43.41
2023-03-17T09:19:40.488Z,43.30
2023-03-17T09:22:08.716Z,41.66
2023-03-17T09:24:36.876Z,43.06
2023-03-17T09:27:07.010Z,42.84
2023-03-17T09:29:35.663Z,42.56
2023-03-17T09:32:03.641Z,43.46
2023-03-17T09:34:31.929Z,43.24
2023-03-17T09:37:00.711Z,42.79
2023-03-17T09:39:28.833Z,42.69
2023-03-17T09:42:09.388Z,41.85
2023-03-17T09:45:13.390Z,39.19
2023-03-17T09:48:02.961Z,38.82
2023-03-17T09:50:39.062Z,39.44
2023-03-17T09:53:18.360Z,41.71
2023-03-17T09:55:49.085Z,40.45
2023-03-17T09:58:22.291Z,42.38
2023-03-17T10:00:50.291Z,40.19
2023-03-17T10:03:18.762Z,42.06
2023-03-17T10:05:46.921Z,41.29
2023-03-17T10:08:30.780Z,40.31
2023-03-17T10:11:06.253Z,41.45
2023-03-17T10:13:48.394Z,40.25
2023-03-17T10:16:20.733Z,38.19
2023-03-17T10:18:56.506Z,41.13
2023-03-17T10:21:30.243Z,38.24
2023-03-17T10:23:59.351Z,40.15
2023-03-17T10:26:32.250Z,40.96
2023-03-17T10:29:04.212Z,39.46
2023-03-17T10:31:35.438Z,40.29
2023-03-17T10:34:14.381Z,39.64
2023-03-17T10:36:45.015Z,37.25
2023-03-17T10:39:15.460Z,40.03
2023-03-17T10:41:53.044Z,40.24
2023-03-17T10:44:36.791Z,37.09
2023-03-17T10:47:05.159Z,36.29
2023-03-17T10:49:37.759Z,41.06
2023-03-17T10:52:08.877Z,37.57
2023-03-17T10:54:37.465Z,40.08
2023-03-17T10:57:10.580Z,40.83
2023-03-17T10:59:44.908Z,39.34
2023-03-17T11:02:24.991Z,38.37
2023-03-17T11:04:55.970Z,37.82
2023-03-17T11:07:31.218Z,39.83
2023-03-17T11:10:02.496Z,37.84
2023-03-17T11:12:36.967Z,40.93
2023-03-17T11:15:11.356Z,38.26
2023-03-17T11:17:45.343Z,38.34
2023-03-17T11:20:33.275Z,40.06
2023-03-17T11:23:07.708Z,34.79
2023-03-17T11:25:40.387Z,39.73
2023-03-17T11:28:19.840Z,38.46
2023-03-17T11:30:59.273Z,35.84
2023-03-17T11:33:35.403Z,35.75
2023-03-17T11:36:15.730Z,36.47
2023-03-17T11:38:56.067Z,38.29
2023-03-17T11:41:37.002Z,35.81
2023-03-17T11:44:53.748Z,34.71
2023-03-17T11:47:38.919Z,33.18
2023-03-17T11:50:20.784Z,33.32
2023-03-17T11:53:00.664Z,35.29
2023-03-17T11:55:35.295Z,36.98
2023-03-17T11:58:10.474Z,37.60
2023-03-17T12:00:43.978Z,36.53
2023-03-17T12:03:23.566Z,36.61
2023-03-17T12:05:56.387Z,35.63
2023-03-17T12:08:31.040Z,37.31
2023-03-17T12:11:01.950Z,35.88
2023-03-17T12:13:39.816Z,38.69
2023-03-17T12:16:11.390Z,37.56
2023-03-17T12:18:46.251Z,38.58
2023-03-17T12:21:22.545Z,36.81
2023-03-17T12:23:54.321Z,36.54
2023-03-17T12:26:30.224Z,37.37
2023-03-17T12:29:03.798Z,37.38
2023-03-17T12:31:35.288Z,37.99
2023-03-17T12:34:15.526Z,38.91
2023-03-17T12:36:44.641Z,33.75
2023-03-17T12:39:16.299Z,39.21
2023-03-17T12:41:59.656Z,38.02
2023-03-17T12:44:42.786Z,36.46
2023-03-17T12:47:31.407Z,36.44
2023-03-17T12:50:21.392Z,34.68
2023-03-17T12:53:14.235Z,35.43
2023-03-17T12:55:47.149Z,34.73
2023-03-17T12:58:33.388Z,36.74
2023-03-17T13:01:08.912Z,34.01
2023-03-17T13:03:46.709Z,37.27
2023-03-17T13:06:22.474Z,38.32
2023-03-17T13:08:52.089Z,36.68
2023-03-17T13:11:27.653Z,37.98
2023-03-17T13:14:15.455Z,38.54
2023-03-17T13:16:47.366Z,35.14
2023-03-17T13:19:22.665Z,37.11
2023-03-17T13:22:25.491Z,38.23
2023-03-17T13:24:55.592Z,32.77
2023-03-17T13:27:46.041Z,38.74
2023-03-17T13:30:43.821Z,34.92
2023-03-17T13:33:23.737Z,34.61
2023-03-17T13:36:09.561Z,35.58
2023-03-17T13:39:18.392Z,35.02
2023-03-17T13:42:01.090Z,36.33
2023-03-17T13:44:47.808Z,36.02
2023-03-17T13:47:27.197Z,34.86
2023-03-17T13:50:02.160Z,37.86
2023-03-17T13:52:33.948Z,37.09
2023-03-17T13:55:26.111Z,38.20
2023-03-17T13:57:57.704Z,37.50
2023-03-17T14:00:29.292Z,38.10
2023-03-17T14:03:03.457Z,38.30
2023-03-17T14:05:34.944Z,37.96
2023-03-17T14:08:05.532Z,38.59
2023-03-17T14:10:35.761Z,37.21
2023-03-17T14:13:14.258Z,38.24
2023-03-17T14:15:49.488Z,36.09
2023-03-17T14:18:20.652Z,36.42
2023-03-17T14:21:09.439Z,38.63
2023-03-17T14:23:39.598Z,33.82
2023-03-17T14:26:12.234Z,38.29
2023-03-17T14:28:40.627Z,36.63
2023-03-17T14:31:19.823Z,38.68
2023-03-17T14:33:48.042Z,38.31
2023-03-17T14:36:16.012Z,38.77
2023-03-17T14:38:49.084Z,38.51
2023-03-17T14:41:21.397Z,37.92
2023-03-17T14:43:51.237Z,38.40
2023-03-17T14:46:24.612Z,38.98
2023-03-17T14:48:58.682Z,38.03
2023-03-17T14:51:30.529Z,38.77
2023-03-17T14:54:01.323Z,39.29
2023-03-17T14:56:35.940Z,39.66
2023-03-17T14:59:07.465Z,39.59
2023-03-17T15:01:39.615Z,39.69
2023-03-17T15:04:12.829Z,39.90
2023-03-17T15:06:50.649Z,40.00
2023-03-17T15:09:21.246Z,37.95
2023-03-17T15:11:50.909Z,39.57
2023-03-17T15:14:24.015Z,39.53
2023-03-17T15:16:55.877Z,39.66
2023-03-17T15:19:28.689Z,39.64
2023-03-17T15:22:00.290Z,39.95
2023-03-17T15:24:40.850Z,40.13
2023-03-17T15:27:17.399Z,38.43
2023-03-17T15:29:45.587Z,38.77
2023-03-17T15:32:16.532Z,40.10
2023-03-17T15:34:44.425Z,40.24
2023-03-17T15:37:17.006Z,40.24
2023-03-17T15:39:45.654Z,39.99
2023-03-17T15:42:22.223Z,40.44
2023-03-17T15:44:50.894Z,39.67
2023-03-17T15:47:21.511Z,40.35
2023-03-17T15:49:51.359Z,40.39
2023-03-17T15:52:24.871Z,40.42
2023-03-17T15:54:54.523Z,40.57
2023-03-17T15:57:25.001Z,40.62
2023-03-17T15:59:53.138Z,40.67
2023-03-17T16:02:27.437Z,40.69
2023-03-17T16:04:56.539Z,40.71
2023-03-17T16:07:25.369Z,40.61
2023-03-17T16:09:53.660Z,40.65
2023-03-17T16:12:21.817Z,40.63
2023-03-17T16:14:51.538Z,40.84
2023-03-17T16:17:26.726Z,40.51
2023-03-17T16:19:56.348Z,40.62
2023-03-17T16:22:38.188Z,40.74
2023-03-17T16:25:19.069Z,39.48
2023-03-17T16:27:47.864Z,40.47
2023-03-17T16:30:19.943Z,40.99
2023-03-17T16:32:48.138Z,40.88
2023-03-17T16:35:18.185Z,41.28
2023-03-17T16:37:48.028Z,41.39
2023-03-17T16:40:22.018Z,41.42
2023-03-17T16:42:51.904Z,41.20
2023-03-17T16:45:29.077Z,41.72
2023-03-17T16:47:58.029Z,41.11
2023-03-17T16:50:28.195Z,41.76
2023-03-17T16:52:56.742Z,41.83
2023-03-17T16:55:27.101Z,41.85
2023-03-17T16:58:00.728Z,41.73
2023-03-17T17:00:32.201Z,41.90
2023-03-17T17:03:00.699Z,41.79
2023-03-17T17:05:31.205Z,41.86
2023-03-17T17:07:59.730Z,41.96
2023-03-17T17:10:30.573Z,41.99
2023-03-17T17:12:59.034Z,41.96
2023-03-17T17:15:27.547Z,42.07
2023-03-17T17:17:59.294Z,41.96
2023-03-17T17:20:30.865Z,41.85
2023-03-17T17:22:59.661Z,42.11
2023-03-17T17:25:28.591Z,42.26
2023-03-17T17:27:58.092Z,42.33
2023-03-17T17:30:28.349Z,42.33
2023-03-17T17:32:59.685Z,42.39
2023-03-17T17:35:32.344Z,42.36
2023-03-17T17:38:01.925Z,42.49
2023-03-17T17:40:31.007Z,42.57
2023-03-17T17:42:59.423Z,42.75
2023-03-17T17:45:27.814Z,42.87
2023-03-17T17:47:55.850Z,42.95
2023-03-17T17:50:28.506Z,43.02
2023-03-17T17:53:02.733Z,43.02
2023-03-17T17:55:30.959Z,43.09
2023-03-17T17:57:59.237Z,43.12
2023-03-17T18:00:28.321Z,43.20
2023-03-17T18:02:56.842Z,43.28
2023-03-17T18:05:26.317Z,43.29
2023-03-17T18:07:54.844Z,43.45
2023-03-17T18:10:25.869Z,43.45
2023-03-17T18:12:55.728Z,43.24
2023-03-17T18:15:25.346Z,43.32
2023-03-17T18:17:53.636Z,43.20
2023-03-17T18:20:23.146Z,43.18
2023-03-17T18:22:54.097Z,43.33
2023-03-17T18:25:22.604Z,43.28
2023-03-17T18:27:51.909Z,43.14
2023-03-17T18:30:23.355Z,42.99
2023-03-17T18:32:55.916Z,42.82
2023-03-17T18:35:27.062Z,43.10
2023-03-17T18:37:57.246Z,42.80
2023-03-17T18:40:26.041Z,42.62
2023-03-17T18:42:54.980Z,42.81
2023-03-17T18:45:23.776Z,42.64
2023-03-17T18:47:52.001Z,42.61
2023-03-17T18:50:22.022Z,42.63
2023-03-17T18:52:50.565Z,42.68
2023-03-17T18:55:21.620Z,42.65
2023-03-17T18:57:49.529Z,42.65
2023-03-17T19:00:19.004Z,42.53
2023-03-17T19:02:48.082Z,42.59
2023-03-17T19:05:16.727Z,42.61
2023-03-17T19:07:45.281Z,42.60
2023-03-17T19:10:15.103Z,42.87
2023-03-17T19:12:47.222Z,42.91
2023-03-17T19:15:18.346Z,42.99
2023-03-17T19:17:46.949Z,43.03
2023-03-17T19:20:15.958Z,43.12
2023-03-17T19:22:43.940Z,43.09
2023-03-17T19:25:12.667Z,43.24
2023-03-17T19:27:41.236Z,43.20
2023-03-17T19:30:12.959Z,43.22
2023-03-17T19:32:41.436Z,43.47
2023-03-17T19:35:10.798Z,43.47
2023-03-17T19:37:39.308Z,43.62
2023-03-17T19:40:10.593Z,43.58
2023-03-17T19:42:39.045Z,43.60
2023-03-17T19:45:09.173Z,43.72
2023-03-17T19:47:38.486Z,43.75
2023-03-17T19:50:07.593Z,43.86
2023-03-17T19:52:36.278Z,43.84
2023-03-17T19:55:08.086Z,44.11
2023-03-17T19:57:36.503Z,44.03
2023-03-17T20:00:09.242Z,44.28
2023-03-17T20:02:39.095Z,43.90
2023-03-17T20:05:08.931Z,44.19
2023-03-17T20:07:37.199Z,43.91
2023-03-17T20:10:07.742Z,43.77
2023-03-17T20:12:38.106Z,43.84
2023-03-17T20:15:08.086Z,44.01
2023-03-17T20:17:37.396Z,43.78
2023-03-17T20:20:09.238Z,43.87
2023-03-17T20:22:38.618Z,43.66
2023-03-17T20:25:08.840Z,43.56
2023-03-17T20:27:36.838Z,43.66
2023-03-17T20:30:05.604Z,43.63
2023-03-17T20:32:34.460Z,43.54
2023-03-17T20:35:02.915Z,43.89
2023-03-17T20:37:32.518Z,43.43
2023-03-17T20:40:02.812Z,43.45
2023-03-17T20:42:31.388Z,43.45
2023-03-17T20:44:59.981Z,43.41
2023-03-17T20:47:28.242Z,43.58
2023-03-17T20:49:58.737Z,43.34
2023-03-17T20:52:28.877Z,43.48
2023-03-17T20:55:00.128Z,43.37
2023-03-17T20:57:28.812Z,43.41
2023-03-17T20:59:58.103Z,43.44
2023-03-17T21:02:26.536Z,43.53
2023-03-17T21:04:54.729Z,43.63
2023-03-17T21:07:24.208Z,43.49
2023-03-17T21:09:56.429Z,43.96
2023-03-17T21:12:26.218Z,43.69
2023-03-17T21:14:54.136Z,44.41
2023-03-17T21:17:22.831Z,44.24
2023-03-17T21:19:51.037Z,44.12
2023-03-17T21:22:18.986Z,44.13
2023-03-17T21:24:47.056Z,44.32
2023-03-17T21:27:15.797Z,43.97
2023-03-17T21:29:45.411Z,44.16
2023-03-17T21:32:13.498Z,44.21
2023-03-17T21:34:41.683Z,44.06
2023-03-17T21:37:12.939Z,44.17
2023-03-17T21:39:41.129Z,44.37
2023-03-17T21:42:10.535Z,44.36
2023-03-17T21:44:38.701Z,44.24
2023-03-17T21:47:08.229Z,44.31
2023-03-17T21:49:36.201Z,44.31
2023-03-17T21:52:04.618Z,44.22
2023-03-17T21:54:32.773Z,44.31
2023-03-17T21:57:00.801Z,44.36
2023-03-17T21:59:30.831Z,44.35
2023-03-17T22:01:59.619Z,44.33
2023-03-17T22:04:29.965Z,44.41
2023-03-17T22:07:01.061Z,44.47
2023-03-17T22:09:31.884Z,44.33
2023-03-17T22:12:01.184Z,44.35
2023-03-17T22:14:30.869Z,44.24
2023-03-17T22:17:02.867Z,44.15
2023-03-17T22:19:44.112Z,44.05
2023-03-17T22:22:12.897Z,44.23
2023-03-17T22:24:41.849Z,44.16
2023-03-17T22:27:11.777Z,44.06
2023-03-17T22:29:40.627Z,44.27
2023-03-17T22:32:12.856Z,43.83
2023-03-17T22:34:43.069Z,44.13
2023-03-17T22:37:14.702Z,44.11
2023-03-17T22:39:43.670Z,44.08
2023-03-17T22:42:12.858Z,44.34
2023-03-17T22:44:41.741Z,44.36
2023-03-17T22:47:17.034Z,44.44
2023-03-17T22:49:47.241Z,44.37
2023-03-17T22:52:18.542Z,44.39
2023-03-17T22:54:47.555Z,44.31
2023-03-17T22:57:16.403Z,44.36
2023-03-17T22:59:45.265Z,44.41
2023-03-17T23:02:16.255Z,44.59
2023-03-17T23:04:54.805Z,44.53
2023-03-17T23:07:31.747Z,44.57
2023-03-17T23:10:00.491Z,44.66
2023-03-17T23:12:30.103Z,44.72
2023-03-17T23:14:58.648Z,44.67
2023-03-17T23:17:28.635Z,44.49
2023-03-17T23:19:59.449Z,44.53
2023-03-17T23:22:27.788Z,44.73
2023-03-17T23:24:55.927Z,45.00
2023-03-17T23:27:24.135Z,44.79
2023-03-17T23:29:53.138Z,44.70
2023-03-17T23:32:21.117Z,44.70
2023-03-17T23:34:49.422Z,44.92
2023-03-17T23:37:18.860Z,45.13
2023-03-17T23:39:46.930Z,44.99
2023-03-17T23:42:16.993Z,45.02
2023-03-17T23:44:45.169Z,45.03
2023-03-17T23:47:14.623Z,45.02
2023-03-17T23:49:43.045Z,45.13
2023-03-17T23:52:11.332Z,45.12
2023-03-17T23:54:40.749Z,45.18
2023-03-17T23:57:09.253Z,45.21
2023-03-17T23:59:37.195Z,45.14
